sensor_id;sensor_type;location;lat;lon;timestamp;P1;durP1;ratioP1;P2;durP2;ratioP2
3967;SDS011;9221;42.646;23.380;2022-09-09T00:00:20;11.57;;;6.07;;
3967;SDS011;9221;42.646;23.380;2022-09-09T00:08:22;17.07;;;6.43;;
3967;SDS011;9221;42.646;23.380;2022-09-09T00:10:56;10.77;;;6.53;;
3967;SDS011;9221;42.646;23.380;2022-09-09T00:13:34;10.00;;;6.00;;
3967;SDS011;9221;42.646;23.380;2022-09-09T00:16:17;12.87;;;5.83;;
3967;SDS011;9221;42.646;23.380;2022-09-09T00:24:07;9.57;;;6.60;;
3967;SDS011;9221;42.646;23.380;2022-09-09T00:26:40;11.33;;;5.67;;
3967;SDS011;9221;42.646;23.380;2022-09-09T00:29:14;11.07;;;6.60;;
3967;SDS011;9221;42.646;23.380;2022-09-09T00:31:45;10.20;;;5.00;;
3967;SDS011;9221;42.646;23.380;2022-09-09T00:36:39;8.00;;;5.03;;
3967;SDS011;9221;42.646;23.380;2022-09-09T00:39:08;8.60;;;5.23;;
3967;SDS011;9221;42.646;23.380;2022-09-09T00:44:33;8.97;;;4.67;;
3967;SDS011;9221;42.646;23.380;2022-09-09T00:47:09;11.60;;;5.90;;
3967;SDS011;9221;42.646;23.380;2022-09-09T00:50:00;10.53;;;5.20;;
3967;SDS011;9221;42.646;23.380;2022-09-09T00:55:01;10.70;;;5.60;;
3967;SDS011;9221;42.646;23.380;2022-09-09T00:57:29;10.13;;;5.87;;
3967;SDS011;9221;42.646;23.380;2022-09-09T00:59:57;8.33;;;5.17;;
3967;SDS011;9221;42.646;23.380;2022-09-09T01:02:53;9.07;;;5.67;;
3967;SDS011;9221;42.646;23.380;2022-09-09T01:13:54;10.27;;;5.80;;
3967;SDS011;9221;42.646;23.380;2022-09-09T01:16:26;11.33;;;5.77;;
3967;SDS011;9221;42.646;23.380;2022-09-09T01:18:55;9.03;;;5.60;;
3967;SDS011;9221;42.646;23.380;2022-09-09T01:24:25;17.13;;;5.97;;
3967;SDS011;9221;42.646;23.380;2022-09-09T01:26:56;20.33;;;6.57;;
3967;SDS011;9221;42.646;23.380;2022-09-09T01:29:26;9.00;;;5.47;;
3967;SDS011;9221;42.646;23.380;2022-09-09T01:31:53;8.00;;;5.10;;
3967;SDS011;9221;42.646;23.380;2022-09-09T01:34:44;10.63;;;5.87;;
3967;SDS011;9221;42.646;23.380;2022-09-09T01:37:09;9.80;;;5.70;;
3967;SDS011;9221;42.646;23.380;2022-09-09T01:39:37;12.83;;;5.70;;
3967;SDS011;9221;42.646;23.380;2022-09-09T01:42:06;13.30;;;5.30;;
3967;SDS011;9221;42.646;23.380;2022-09-09T01:44:34;13.23;;;5.90;;
3967;SDS011;9221;42.646;23.380;2022-09-09T01:47:00;12.70;;;5.70;;
3967;SDS011;9221;42.646;23.380;2022-09-09T01:49:26;10.30;;;5.47;;
3967;SDS011;9221;42.646;23.380;2022-09-09T01:51:53;9.63;;;5.20;;
3967;SDS011;9221;42.646;23.380;2022-09-09T01:54:21;13.47;;;5.47;;
3967;SDS011;9221;42.646;23.380;2022-09-09T01:59:35;13.67;;;6.40;;
3967;SDS011;9221;42.646;23.380;2022-09-09T02:10:16;8.77;;;5.23;;
3967;SDS011;9221;42.646;23.380;2022-09-09T02:12:44;8.97;;;5.33;;
3967;SDS011;9221;42.646;23.380;2022-09-09T02:15:17;11.23;;;5.70;;
3967;SDS011;9221;42.646;23.380;2022-09-09T02:17:49;8.50;;;5.10;;
3967;SDS011;9221;42.646;23.380;2022-09-09T02:20:17;10.40;;;5.90;;
3967;SDS011;9221;42.646;23.380;2022-09-09T02:22:44;10.33;;;5.93;;
3967;SDS011;9221;42.646;23.380;2022-09-09T02:25:14;9.57;;;5.83;;
3967;SDS011;9221;42.646;23.380;2022-09-09T02:27:44;10.63;;;4.67;;
3967;SDS011;9221;42.646;23.380;2022-09-09T02:30:12;8.40;;;5.57;;
3967;SDS011;9221;42.646;23.380;2022-09-09T02:32:38;10.97;;;5.70;;
3967;SDS011;9221;42.646;23.380;2022-09-09T02:35:10;8.00;;;5.13;;
3967;SDS011;9221;42.646;23.380;2022-09-09T02:37:39;10.20;;;6.00;;
3967;SDS011;9221;42.646;23.380;2022-09-09T02:40:07;10.23;;;5.70;;
3967;SDS011;9221;42.646;23.380;2022-09-09T02:42:39;10.77;;;5.63;;
3967;SDS011;9221;42.646;23.380;2022-09-09T02:45:05;12.90;;;5.47;;
3967;SDS011;9221;42.646;23.380;2022-09-09T02:47:34;11.50;;;5.10;;
3967;SDS011;9221;42.646;23.380;2022-09-09T02:55:24;9.23;;;5.57;;
3967;SDS011;9221;42.646;23.380;2022-09-09T02:57:57;9.27;;;5.60;;
3967;SDS011;9221;42.646;23.380;2022-09-09T03:00:25;10.63;;;6.30;;
3967;SDS011;9221;42.646;23.380;2022-09-09T03:02:52;18.83;;;6.37;;
3967;SDS011;9221;42.646;23.380;2022-09-09T03:05:19;10.17;;;5.70;;
3967;SDS011;9221;42.646;23.380;2022-09-09T03:07:45;13.47;;;5.87;;
3967;SDS011;9221;42.646;23.380;2022-09-09T03:10:11;9.67;;;5.67;;
3967;SDS011;9221;42.646;23.380;2022-09-09T03:12:36;14.53;;;6.50;;
3967;SDS011;9221;42.646;23.380;2022-09-09T03:15:02;11.70;;;6.83;;
3967;SDS011;9221;42.646;23.380;2022-09-09T03:17:28;15.17;;;7.57;;
3967;SDS011;9221;42.646;23.380;2022-09-09T03:19:53;17.60;;;6.63;;
3967;SDS011;9221;42.646;23.380;2022-09-09T03:22:20;17.47;;;7.90;;
3967;SDS011;9221;42.646;23.380;2022-09-09T03:24:46;13.93;;;7.37;;
3967;SDS011;9221;42.646;23.380;2022-09-09T03:27:12;15.07;;;7.60;;
3967;SDS011;9221;42.646;23.380;2022-09-09T03:29:39;18.33;;;7.13;;
3967;SDS011;9221;42.646;23.380;2022-09-09T03:32:05;18.47;;;7.87;;
3967;SDS011;9221;42.646;23.380;2022-09-09T03:34:30;20.00;;;8.93;;
3967;SDS011;9221;42.646;23.380;2022-09-09T03:36:56;13.80;;;6.83;;
3967;SDS011;9221;42.646;23.380;2022-09-09T03:39:21;11.60;;;7.27;;
3967;SDS011;9221;42.646;23.380;2022-09-09T03:41:47;18.00;;;7.67;;
3967;SDS011;9221;42.646;23.380;2022-09-09T03:44:13;18.50;;;8.30;;
3967;SDS011;9221;42.646;23.380;2022-09-09T03:46:39;11.53;;;6.70;;
3967;SDS011;9221;42.646;23.380;2022-09-09T03:49:05;14.63;;;7.43;;
3967;SDS011;9221;42.646;23.380;2022-09-09T03:51:30;16.37;;;7.30;;
3967;SDS011;9221;42.646;23.380;2022-09-09T03:53:56;21.47;;;8.73;;
3967;SDS011;9221;42.646;23.380;2022-09-09T03:56:23;12.80;;;7.67;;
3967;SDS011;9221;42.646;23.380;2022-09-09T03:58:49;14.80;;;8.13;;
3967;SDS011;9221;42.646;23.380;2022-09-09T04:01:14;15.20;;;7.90;;
3967;SDS011;9221;42.646;23.380;2022-09-09T04:03:42;15.27;;;7.93;;
3967;SDS011;9221;42.646;23.380;2022-09-09T04:06:10;19.40;;;7.60;;
3967;SDS011;9221;42.646;23.380;2022-09-09T04:08:38;18.53;;;7.70;;
3967;SDS011;9221;42.646;23.380;2022-09-09T04:11:04;21.00;;;7.20;;
3967;SDS011;9221;42.646;23.380;2022-09-09T04:13:32;25.00;;;7.97;;
3967;SDS011;9221;42.646;23.380;2022-09-09T04:15:59;12.77;;;7.80;;
3967;SDS011;9221;42.646;23.380;2022-09-09T04:18:26;23.33;;;8.00;;
3967;SDS011;9221;42.646;23.380;2022-09-09T04:20:53;18.63;;;7.80;;
3967;SDS011;9221;42.646;23.380;2022-09-09T04:23:20;15.43;;;7.63;;
3967;SDS011;9221;42.646;23.380;2022-09-09T04:25:48;14.43;;;7.50;;
3967;SDS011;9221;42.646;23.380;2022-09-09T04:28:16;20.47;;;8.97;;
3967;SDS011;9221;42.646;23.380;2022-09-09T04:30:43;19.40;;;8.43;;
3967;SDS011;9221;42.646;23.380;2022-09-09T04:33:10;17.27;;;8.90;;
3967;SDS011;9221;42.646;23.380;2022-09-09T04:35:36;18.57;;;7.83;;
3967;SDS011;9221;42.646;23.380;2022-09-09T04:38:02;25.80;;;9.10;;
3967;SDS011;9221;42.646;23.380;2022-09-09T04:40:28;19.33;;;9.67;;
3967;SDS011;9221;42.646;23.380;2022-09-09T04:42:54;21.83;;;10.00;;
3967;SDS011;9221;42.646;23.380;2022-09-09T04:45:22;19.10;;;7.70;;
3967;SDS011;9221;42.646;23.380;2022-09-09T04:47:48;25.53;;;11.50;;
3967;SDS011;9221;42.646;23.380;2022-09-09T04:50:14;19.17;;;8.27;;
3967;SDS011;9221;42.646;23.380;2022-09-09T04:52:39;16.10;;;7.83;;
3967;SDS011;9221;42.646;23.380;2022-09-09T04:55:06;12.80;;;6.10;;
3967;SDS011;9221;42.646;23.380;2022-09-09T04:57:32;11.40;;;6.73;;
3967;SDS011;9221;42.646;23.380;2022-09-09T04:59:58;14.10;;;7.77;;
3967;SDS011;9221;42.646;23.380;2022-09-09T05:02:25;13.80;;;6.60;;
3967;SDS011;9221;42.646;23.380;2022-09-09T05:04:51;17.63;;;6.57;;
3967;SDS011;9221;42.646;23.380;2022-09-09T05:07:16;16.27;;;7.93;;
3967;SDS011;9221;42.646;23.380;2022-09-09T05:09:42;9.93;;;5.63;;
3967;SDS011;9221;42.646;23.380;2022-09-09T05:12:08;12.33;;;6.37;;
3967;SDS011;9221;42.646;23.380;2022-09-09T05:14:33;11.77;;;7.13;;
3967;SDS011;9221;42.646;23.380;2022-09-09T05:17:01;17.40;;;6.90;;
3967;SDS011;9221;42.646;23.380;2022-09-09T05:19:26;15.77;;;6.57;;
3967;SDS011;9221;42.646;23.380;2022-09-09T05:21:52;13.50;;;5.77;;
3967;SDS011;9221;42.646;23.380;2022-09-09T05:24:18;9.87;;;5.57;;
3967;SDS011;9221;42.646;23.380;2022-09-09T05:26:43;13.83;;;6.27;;
3967;SDS011;9221;42.646;23.380;2022-09-09T05:29:09;14.20;;;5.90;;
3967;SDS011;9221;42.646;23.380;2022-09-09T05:31:34;9.50;;;5.40;;
3967;SDS011;9221;42.646;23.380;2022-09-09T05:34:00;13.10;;;5.90;;
3967;SDS011;9221;42.646;23.380;2022-09-09T05:36:25;17.50;;;5.73;;
3967;SDS011;9221;42.646;23.380;2022-09-09T05:38:50;24.23;;;7.70;;
3967;SDS011;9221;42.646;23.380;2022-09-09T05:41:18;10.83;;;5.33;;
3967;SDS011;9221;42.646;23.380;2022-09-09T05:43:45;12.93;;;5.97;;
3967;SDS011;9221;42.646;23.380;2022-09-09T05:46:13;12.70;;;4.90;;
3967;SDS011;9221;42.646;23.380;2022-09-09T05:48:40;9.47;;;4.67;;
3967;SDS011;9221;42.646;23.380;2022-09-09T05:51:08;13.23;;;6.33;;
3967;SDS011;9221;42.646;23.380;2022-09-09T05:53:37;9.23;;;5.40;;
3967;SDS011;9221;42.646;23.380;2022-09-09T05:56:04;12.80;;;5.90;;
3967;SDS011;9221;42.646;23.380;2022-09-09T05:58:37;9.70;;;5.27;;
3967;SDS011;9221;42.646;23.380;2022-09-09T06:01:07;14.73;;;4.60;;
3967;SDS011;9221;42.646;23.380;2022-09-09T06:03:38;16.00;;;6.07;;
3967;SDS011;9221;42.646;23.380;2022-09-09T06:06:08;7.23;;;4.90;;
3967;SDS011;9221;42.646;23.380;2022-09-09T06:08:37;10.07;;;5.00;;
3967;SDS011;9221;42.646;23.380;2022-09-09T06:11:04;9.47;;;4.87;;
3967;SDS011;9221;42.646;23.380;2022-09-09T06:13:34;11.73;;;5.10;;
3967;SDS011;9221;42.646;23.380;2022-09-09T06:16:02;8.40;;;4.40;;
3967;SDS011;9221;42.646;23.380;2022-09-09T06:18:27;9.27;;;4.70;;
3967;SDS011;9221;42.646;23.380;2022-09-09T06:20:58;9.50;;;4.30;;
3967;SDS011;9221;42.646;23.380;2022-09-09T06:23:25;12.07;;;4.93;;
3967;SDS011;9221;42.646;23.380;2022-09-09T06:25:52;12.20;;;5.37;;
3967;SDS011;9221;42.646;23.380;2022-09-09T06:28:28;9.90;;;4.97;;
3967;SDS011;9221;42.646;23.380;2022-09-09T06:31:02;11.37;;;5.27;;
3967;SDS011;9221;42.646;23.380;2022-09-09T06:33:33;6.63;;;5.03;;
3967;SDS011;9221;42.646;23.380;2022-09-09T06:36:01;14.83;;;5.43;;
3967;SDS011;9221;42.646;23.380;2022-09-09T06:38:28;12.03;;;5.20;;
3967;SDS011;9221;42.646;23.380;2022-09-09T06:40:54;15.73;;;5.20;;
3967;SDS011;9221;42.646;23.380;2022-09-09T06:43:21;13.57;;;5.90;;
3967;SDS011;9221;42.646;23.380;2022-09-09T06:48:23;17.50;;;6.60;;
3967;SDS011;9221;42.646;23.380;2022-09-09T06:50:51;13.70;;;5.40;;
3967;SDS011;9221;42.646;23.380;2022-09-09T06:53:24;15.43;;;5.90;;
3967;SDS011;9221;42.646;23.380;2022-09-09T06:55:51;18.43;;;7.00;;
3967;SDS011;9221;42.646;23.380;2022-09-09T06:58:16;11.20;;;6.73;;
3967;SDS011;9221;42.646;23.380;2022-09-09T07:00:42;11.27;;;5.47;;
3967;SDS011;9221;42.646;23.380;2022-09-09T07:03:07;11.30;;;5.17;;
3967;SDS011;9221;42.646;23.380;2022-09-09T07:05:34;15.93;;;6.13;;
3967;SDS011;9221;42.646;23.380;2022-09-09T07:08:00;14.00;;;6.67;;
3967;SDS011;9221;42.646;23.380;2022-09-09T07:10:25;16.07;;;6.47;;
3967;SDS011;9221;42.646;23.380;2022-09-09T07:12:51;16.80;;;6.90;;
3967;SDS011;9221;42.646;23.380;2022-09-09T07:15:18;13.70;;;6.30;;
3967;SDS011;9221;42.646;23.380;2022-09-09T07:17:44;13.17;;;5.57;;
3967;SDS011;9221;42.646;23.380;2022-09-09T07:20:10;10.17;;;5.27;;
3967;SDS011;9221;42.646;23.380;2022-09-09T07:22:36;13.63;;;5.97;;
3967;SDS011;9221;42.646;23.380;2022-09-09T07:25:02;16.07;;;5.90;;
3967;SDS011;9221;42.646;23.380;2022-09-09T07:27:28;8.93;;;5.10;;
3967;SDS011;9221;42.646;23.380;2022-09-09T07:29:53;17.73;;;4.40;;
3967;SDS011;9221;42.646;23.380;2022-09-09T07:32:19;16.43;;;6.40;;
3967;SDS011;9221;42.646;23.380;2022-09-09T07:34:45;9.27;;;4.70;;
3967;SDS011;9221;42.646;23.380;2022-09-09T07:37:12;8.57;;;4.50;;
3967;SDS011;9221;42.646;23.380;2022-09-09T07:39:38;16.07;;;5.63;;
3967;SDS011;9221;42.646;23.380;2022-09-09T07:42:04;8.07;;;4.93;;
3967;SDS011;9221;42.646;23.380;2022-09-09T07:44:30;19.87;;;5.00;;
3967;SDS011;9221;42.646;23.380;2022-09-09T07:46:57;8.40;;;4.53;;
3967;SDS011;9221;42.646;23.380;2022-09-09T07:49:23;11.80;;;4.57;;
3967;SDS011;9221;42.646;23.380;2022-09-09T07:51:49;9.50;;;4.80;;
3967;SDS011;9221;42.646;23.380;2022-09-09T07:54:15;6.60;;;4.13;;
3967;SDS011;9221;42.646;23.380;2022-09-09T07:56:45;15.53;;;4.97;;
3967;SDS011;9221;42.646;23.380;2022-09-09T07:59:12;8.90;;;4.50;;
3967;SDS011;9221;42.646;23.380;2022-09-09T08:01:39;10.97;;;4.47;;
3967;SDS011;9221;42.646;23.380;2022-09-09T08:04:11;23.13;;;5.27;;
3967;SDS011;9221;42.646;23.380;2022-09-09T08:06:46;8.50;;;4.60;;
3967;SDS011;9221;42.646;23.380;2022-09-09T08:09:14;11.67;;;4.07;;
3967;SDS011;9221;42.646;23.380;2022-09-09T08:11:40;10.87;;;4.10;;
3967;SDS011;9221;42.646;23.380;2022-09-09T08:14:06;7.90;;;4.40;;
3967;SDS011;9221;42.646;23.380;2022-09-09T08:16:33;10.60;;;4.40;;
3967;SDS011;9221;42.646;23.380;2022-09-09T08:19:02;8.87;;;5.27;;
3967;SDS011;9221;42.646;23.380;2022-09-09T08:21:29;19.83;;;7.67;;
3967;SDS011;9221;42.646;23.380;2022-09-09T08:23:57;18.60;;;8.27;;
3967;SDS011;9221;42.646;23.380;2022-09-09T08:26:24;12.10;;;6.13;;
3967;SDS011;9221;42.646;23.380;2022-09-09T08:28:53;17.23;;;5.73;;
3967;SDS011;9221;42.646;23.380;2022-09-09T08:31:25;19.17;;;5.00;;
3967;SDS011;9221;42.646;23.380;2022-09-09T08:33:53;12.00;;;5.17;;
3967;SDS011;9221;42.646;23.380;2022-09-09T08:36:19;9.17;;;4.10;;
3967;SDS011;9221;42.646;23.380;2022-09-09T08:38:50;5.90;;;4.13;;
3967;SDS011;9221;42.646;23.380;2022-09-09T08:41:30;10.50;;;4.30;;
3967;SDS011;9221;42.646;23.380;2022-09-09T08:47:02;7.87;;;4.60;;
3967;SDS011;9221;42.646;23.380;2022-09-09T08:58:33;8.53;;;3.40;;
3967;SDS011;9221;42.646;23.380;2022-09-09T09:01:11;9.23;;;4.17;;
3967;SDS011;9221;42.646;23.380;2022-09-09T09:06:24;12.93;;;4.23;;
3967;SDS011;9221;42.646;23.380;2022-09-09T09:09:02;8.27;;;4.43;;
3967;SDS011;9221;42.646;23.380;2022-09-09T09:11:40;6.40;;;4.10;;
3967;SDS011;9221;42.646;23.380;2022-09-09T09:14:17;10.20;;;4.07;;
3967;SDS011;9221;42.646;23.380;2022-09-09T09:16:58;13.57;;;5.60;;
3967;SDS011;9221;42.646;23.380;2022-09-09T09:19:26;10.50;;;4.20;;
3967;SDS011;9221;42.646;23.380;2022-09-09T09:21:54;8.30;;;4.03;;
3967;SDS011;9221;42.646;23.380;2022-09-09T09:24:40;7.77;;;4.77;;
3967;SDS011;9221;42.646;23.380;2022-09-09T09:27:14;12.53;;;4.30;;
3967;SDS011;9221;42.646;23.380;2022-09-09T09:29:43;13.53;;;4.50;;
3967;SDS011;9221;42.646;23.380;2022-09-09T09:32:14;15.97;;;4.20;;
3967;SDS011;9221;42.646;23.380;2022-09-09T09:34:48;8.47;;;4.40;;
3967;SDS011;9221;42.646;23.380;2022-09-09T09:37:21;11.50;;;4.30;;
3967;SDS011;9221;42.646;23.380;2022-09-09T09:40:12;15.67;;;4.60;;
3967;SDS011;9221;42.646;23.380;2022-09-09T09:43:00;10.73;;;4.57;;
3967;SDS011;9221;42.646;23.380;2022-09-09T09:45:32;10.53;;;4.50;;
3967;SDS011;9221;42.646;23.380;2022-09-09T09:48:04;11.03;;;4.17;;
3967;SDS011;9221;42.646;23.380;2022-09-09T09:50:31;11.73;;;4.37;;
3967;SDS011;9221;42.646;23.380;2022-09-09T09:53:17;11.13;;;3.93;;
3967;SDS011;9221;42.646;23.380;2022-09-09T09:55:54;9.00;;;4.07;;
3967;SDS011;9221;42.646;23.380;2022-09-09T09:58:25;9.03;;;4.07;;
3967;SDS011;9221;42.646;23.380;2022-09-09T10:00:53;9.03;;;4.40;;
3967;SDS011;9221;42.646;23.380;2022-09-09T10:03:29;8.73;;;4.30;;
3967;SDS011;9221;42.646;23.380;2022-09-09T10:05:57;11.23;;;4.67;;
3967;SDS011;9221;42.646;23.380;2022-09-09T10:08:23;7.13;;;4.20;;
3967;SDS011;9221;42.646;23.380;2022-09-09T10:13:50;21.90;;;4.90;;
3967;SDS011;9221;42.646;23.380;2022-09-09T10:16:34;9.93;;;4.53;;
3967;SDS011;9221;42.646;23.380;2022-09-09T10:19:29;11.00;;;4.53;;
3967;SDS011;9221;42.646;23.380;2022-09-09T10:22:02;8.00;;;4.53;;
3967;SDS011;9221;42.646;23.380;2022-09-09T10:30:36;13.20;;;4.03;;
3967;SDS011;9221;42.646;23.380;2022-09-09T10:35:46;16.83;;;4.90;;
3967;SDS011;9221;42.646;23.380;2022-09-09T10:57:48;21.60;;;4.67;;
3967;SDS011;9221;42.646;23.380;2022-09-09T11:00:23;14.37;;;4.67;;
3967;SDS011;9221;42.646;23.380;2022-09-09T11:03:00;11.77;;;4.30;;
3967;SDS011;9221;42.646;23.380;2022-09-09T11:05:43;13.50;;;4.97;;
3967;SDS011;9221;42.646;23.380;2022-09-09T11:22:02;10.90;;;5.07;;
3967;SDS011;9221;42.646;23.380;2022-09-09T11:24:58;8.93;;;5.00;;
3967;SDS011;9221;42.646;23.380;2022-09-09T11:27:33;9.30;;;5.20;;
3967;SDS011;9221;42.646;23.380;2022-09-09T11:30:22;12.47;;;5.67;;
3967;SDS011;9221;42.646;23.380;2022-09-09T11:33:03;9.80;;;4.90;;
3967;SDS011;9221;42.646;23.380;2022-09-09T11:38:45;15.47;;;5.07;;
3967;SDS011;9221;42.646;23.380;2022-09-09T11:41:12;16.83;;;5.80;;
3967;SDS011;9221;42.646;23.380;2022-09-09T11:43:41;12.80;;;4.77;;
3967;SDS011;9221;42.646;23.380;2022-09-09T11:46:15;8.53;;;5.50;;
3967;SDS011;9221;42.646;23.380;2022-09-09T11:48:43;11.10;;;4.90;;
3967;SDS011;9221;42.646;23.380;2022-09-09T11:53:51;15.97;;;5.03;;
3967;SDS011;9221;42.646;23.380;2022-09-09T11:56:29;13.33;;;4.97;;
3967;SDS011;9221;42.646;23.380;2022-09-09T11:59:06;23.80;;;4.80;;
3967;SDS011;9221;42.646;23.380;2022-09-09T12:02:08;9.17;;;5.60;;
3967;SDS011;9221;42.646;23.380;2022-09-09T12:07:38;14.30;;;5.83;;
3967;SDS011;9221;42.646;23.380;2022-09-09T12:15:01;18.67;;;5.63;;
3967;SDS011;9221;42.646;23.380;2022-09-09T12:17:28;10.60;;;5.20;;
3967;SDS011;9221;42.646;23.380;2022-09-09T12:20:15;11.43;;;5.20;;
3967;SDS011;9221;42.646;23.380;2022-09-09T12:31:06;20.37;;;5.50;;
3967;SDS011;9221;42.646;23.380;2022-09-09T12:33:35;15.03;;;5.43;;
3967;SDS011;9221;42.646;23.380;2022-09-09T12:36:03;18.20;;;6.77;;
3967;SDS011;9221;42.646;23.380;2022-09-09T12:40:59;16.23;;;6.60;;
3967;SDS011;9221;42.646;23.380;2022-09-09T12:43:25;9.40;;;5.23;;
3967;SDS011;9221;42.646;23.380;2022-09-09T12:46:12;9.70;;;5.23;;
3967;SDS011;9221;42.646;23.380;2022-09-09T12:48:58;13.03;;;5.97;;
3967;SDS011;9221;42.646;23.380;2022-09-09T12:51:27;15.67;;;6.43;;
3967;SDS011;9221;42.646;23.380;2022-09-09T12:53:55;10.00;;;5.77;;
3967;SDS011;9221;42.646;23.380;2022-09-09T12:56:22;14.50;;;5.77;;
3967;SDS011;9221;42.646;23.380;2022-09-09T12:58:51;12.33;;;5.43;;
3967;SDS011;9221;42.646;23.380;2022-09-09T13:01:20;11.23;;;5.37;;
3967;SDS011;9221;42.646;23.380;2022-09-09T13:03:56;13.33;;;5.43;;
3967;SDS011;9221;42.646;23.380;2022-09-09T13:06:26;10.40;;;6.27;;
3967;SDS011;9221;42.646;23.380;2022-09-09T13:08:53;11.37;;;5.90;;
3967;SDS011;9221;42.646;23.380;2022-09-09T13:11:21;19.60;;;5.33;;
3967;SDS011;9221;42.646;23.380;2022-09-09T13:13:54;17.50;;;5.80;;
3967;SDS011;9221;42.646;23.380;2022-09-09T13:16:28;14.83;;;6.67;;
3967;SDS011;9221;42.646;23.380;2022-09-09T13:18:56;17.63;;;5.40;;
3967;SDS011;9221;42.646;23.380;2022-09-09T13:21:32;10.50;;;5.33;;
3967;SDS011;9221;42.646;23.380;2022-09-09T13:23:59;12.50;;;6.20;;
3967;SDS011;9221;42.646;23.380;2022-09-09T13:26:28;17.23;;;5.87;;
3967;SDS011;9221;42.646;23.380;2022-09-09T13:28:55;8.97;;;5.33;;
3967;SDS011;9221;42.646;23.380;2022-09-09T13:31:40;12.00;;;5.47;;
3967;SDS011;9221;42.646;23.380;2022-09-09T13:34:12;25.80;;;6.20;;
3967;SDS011;9221;42.646;23.380;2022-09-09T13:36:39;11.40;;;5.20;;
3967;SDS011;9221;42.646;23.380;2022-09-09T13:39:14;9.83;;;5.93;;
3967;SDS011;9221;42.646;23.380;2022-09-09T13:41:43;21.00;;;6.20;;
3967;SDS011;9221;42.646;23.380;2022-09-09T13:46:58;14.13;;;5.60;;
3967;SDS011;9221;42.646;23.380;2022-09-09T13:49:28;13.83;;;5.20;;
3967;SDS011;9221;42.646;23.380;2022-09-09T13:52:14;8.57;;;5.70;;
3967;SDS011;9221;42.646;23.380;2022-09-09T13:54:42;15.30;;;5.73;;
3967;SDS011;9221;42.646;23.380;2022-09-09T13:57:24;14.73;;;6.30;;
3967;SDS011;9221;42.646;23.380;2022-09-09T13:59:50;16.10;;;5.80;;
3967;SDS011;9221;42.646;23.380;2022-09-09T14:02:22;21.47;;;6.50;;
3967;SDS011;9221;42.646;23.380;2022-09-09T14:04:48;23.73;;;6.37;;
3967;SDS011;9221;42.646;23.380;2022-09-09T14:07:16;11.30;;;5.60;;
3967;SDS011;9221;42.646;23.380;2022-09-09T14:09:43;16.23;;;6.00;;
3967;SDS011;9221;42.646;23.380;2022-09-09T14:12:10;10.67;;;5.20;;
3967;SDS011;9221;42.646;23.380;2022-09-09T14:14:36;17.37;;;6.00;;
3967;SDS011;9221;42.646;23.380;2022-09-09T14:17:02;14.77;;;5.70;;
3967;SDS011;9221;42.646;23.380;2022-09-09T14:19:28;9.50;;;5.00;;
3967;SDS011;9221;42.646;23.380;2022-09-09T14:21:54;31.70;;;6.80;;
3967;SDS011;9221;42.646;23.380;2022-09-09T14:24:19;13.60;;;5.17;;
3967;SDS011;9221;42.646;23.380;2022-09-09T14:26:45;9.37;;;5.30;;
3967;SDS011;9221;42.646;23.380;2022-09-09T14:29:10;15.00;;;5.60;;
3967;SDS011;9221;42.646;23.380;2022-09-09T14:31:35;14.43;;;5.87;;
3967;SDS011;9221;42.646;23.380;2022-09-09T14:34:01;17.87;;;5.70;;
3967;SDS011;9221;42.646;23.380;2022-09-09T14:36:26;16.77;;;6.70;;
3967;SDS011;9221;42.646;23.380;2022-09-09T14:38:52;20.33;;;6.10;;
3967;SDS011;9221;42.646;23.380;2022-09-09T14:41:18;11.00;;;5.60;;
3967;SDS011;9221;42.646;23.380;2022-09-09T14:43:47;11.60;;;6.20;;
3967;SDS011;9221;42.646;23.380;2022-09-09T14:46:14;14.40;;;6.20;;
3967;SDS011;9221;42.646;23.380;2022-09-09T14:48:41;17.60;;;5.63;;
3967;SDS011;9221;42.646;23.380;2022-09-09T14:53:37;16.33;;;5.70;;
3967;SDS011;9221;42.646;23.380;2022-09-09T14:56:07;11.70;;;5.70;;
3967;SDS011;9221;42.646;23.380;2022-09-09T14:58:35;10.37;;;4.90;;
3967;SDS011;9221;42.646;23.380;2022-09-09T15:01:04;8.20;;;5.10;;
3967;SDS011;9221;42.646;23.380;2022-09-09T15:03:32;8.77;;;5.37;;
3967;SDS011;9221;42.646;23.380;2022-09-09T15:05:58;14.67;;;5.20;;
3967;SDS011;9221;42.646;23.380;2022-09-09T15:08:24;15.90;;;6.13;;
3967;SDS011;9221;42.646;23.380;2022-09-09T15:10:51;16.57;;;5.87;;
3967;SDS011;9221;42.646;23.380;2022-09-09T15:13:24;12.73;;;5.87;;
3967;SDS011;9221;42.646;23.380;2022-09-09T15:15:49;13.47;;;5.90;;
3967;SDS011;9221;42.646;23.380;2022-09-09T15:18:15;14.00;;;5.73;;
3967;SDS011;9221;42.646;23.380;2022-09-09T15:20:44;12.73;;;5.60;;
3967;SDS011;9221;42.646;23.380;2022-09-09T15:23:11;16.40;;;4.97;;
3967;SDS011;9221;42.646;23.380;2022-09-09T15:25:37;14.47;;;6.40;;
3967;SDS011;9221;42.646;23.380;2022-09-09T15:28:02;12.87;;;6.10;;
3967;SDS011;9221;42.646;23.380;2022-09-09T15:30:28;9.80;;;6.20;;
3967;SDS011;9221;42.646;23.380;2022-09-09T15:32:53;12.60;;;5.70;;
3967;SDS011;9221;42.646;23.380;2022-09-09T15:35:19;18.07;;;6.50;;
3967;SDS011;9221;42.646;23.380;2022-09-09T15:37:45;14.93;;;5.80;;
3967;SDS011;9221;42.646;23.380;2022-09-09T15:40:10;21.40;;;6.47;;
3967;SDS011;9221;42.646;23.380;2022-09-09T15:42:36;17.40;;;6.17;;
3967;SDS011;9221;42.646;23.380;2022-09-09T15:45:01;15.13;;;5.80;;
3967;SDS011;9221;42.646;23.380;2022-09-09T15:47:26;13.90;;;5.50;;
3967;SDS011;9221;42.646;23.380;2022-09-09T15:49:52;12.00;;;5.77;;
3967;SDS011;9221;42.646;23.380;2022-09-09T15:52:18;10.00;;;4.80;;
3967;SDS011;9221;42.646;23.380;2022-09-09T15:54:43;13.47;;;5.87;;
3967;SDS011;9221;42.646;23.380;2022-09-09T15:57:10;13.53;;;5.50;;
3967;SDS011;9221;42.646;23.380;2022-09-09T15:59:37;24.97;;;7.67;;
3967;SDS011;9221;42.646;23.380;2022-09-09T16:02:03;27.07;;;5.60;;
3967;SDS011;9221;42.646;23.380;2022-09-09T16:04:30;23.00;;;5.90;;
3967;SDS011;9221;42.646;23.380;2022-09-09T16:06:57;15.70;;;5.13;;
3967;SDS011;9221;42.646;23.380;2022-09-09T16:09:30;12.87;;;5.20;;
3967;SDS011;9221;42.646;23.380;2022-09-09T16:11:57;14.13;;;5.90;;
3967;SDS011;9221;42.646;23.380;2022-09-09T16:14:25;20.97;;;5.90;;
3967;SDS011;9221;42.646;23.380;2022-09-09T16:16:52;17.80;;;5.33;;
3967;SDS011;9221;42.646;23.380;2022-09-09T16:19:18;17.20;;;5.50;;
3967;SDS011;9221;42.646;23.380;2022-09-09T16:21:47;15.50;;;5.83;;
3967;SDS011;9221;42.646;23.380;2022-09-09T16:24:15;14.03;;;5.77;;
3967;SDS011;9221;42.646;23.380;2022-09-09T16:26:43;12.80;;;5.50;;
3967;SDS011;9221;42.646;23.380;2022-09-09T16:29:11;18.67;;;6.13;;
3967;SDS011;9221;42.646;23.380;2022-09-09T16:31:40;19.50;;;6.10;;
3967;SDS011;9221;42.646;23.380;2022-09-09T16:34:07;12.23;;;5.57;;
3967;SDS011;9221;42.646;23.380;2022-09-09T16:36:33;15.23;;;6.90;;
3967;SDS011;9221;42.646;23.380;2022-09-09T16:39:03;18.27;;;6.30;;
3967;SDS011;9221;42.646;23.380;2022-09-09T16:41:30;17.43;;;6.83;;
3967;SDS011;9221;42.646;23.380;2022-09-09T16:44:00;24.80;;;7.03;;
3967;SDS011;9221;42.646;23.380;2022-09-09T16:46:27;25.03;;;7.53;;
3967;SDS011;9221;42.646;23.380;2022-09-09T16:48:58;22.87;;;7.73;;
3967;SDS011;9221;42.646;23.380;2022-09-09T16:51:26;19.87;;;7.50;;
3967;SDS011;9221;42.646;23.380;2022-09-09T16:53:53;22.80;;;8.50;;
3967;SDS011;9221;42.646;23.380;2022-09-09T16:56:23;18.50;;;9.33;;
3967;SDS011;9221;42.646;23.380;2022-09-09T16:58:51;28.03;;;9.73;;
3967;SDS011;9221;42.646;23.380;2022-09-09T17:01:19;20.43;;;8.40;;
3967;SDS011;9221;42.646;23.380;2022-09-09T17:03:44;28.87;;;8.23;;
3967;SDS011;9221;42.646;23.380;2022-09-09T17:06:10;25.80;;;7.60;;
3967;SDS011;9221;42.646;23.380;2022-09-09T17:08:37;27.10;;;8.43;;
3967;SDS011;9221;42.646;23.380;2022-09-09T17:11:04;20.10;;;8.60;;
3967;SDS011;9221;42.646;23.380;2022-09-09T17:13:38;13.33;;;7.37;;
3967;SDS011;9221;42.646;23.380;2022-09-09T17:16:04;21.53;;;7.77;;
3967;SDS011;9221;42.646;23.380;2022-09-09T17:18:30;16.53;;;8.83;;
3967;SDS011;9221;42.646;23.380;2022-09-09T17:20:56;20.67;;;8.23;;